sensor_id;sensor_type;location;lat;lon;timestamp;pressure;altitude;pressure_sealevel;temperature;humidity
6423;BME280;3244;42.708;23.288;2023-02-27T00:01:57;94171.72;;;12.36;63.86
6423;BME280;3244;42.708;23.288;2023-02-27T00:04:25;94164.19;;;12.64;62.83
6423;BME280;3244;42.708;23.288;2023-02-27T00:06:52;94151.53;;;12.63;62.36
6423;BME280;3244;42.708;23.288;2023-02-27T00:09:19;94165.03;;;12.49;62.42
6423;BME280;3244;42.708;23.288;2023-02-27T00:11:46;94148.13;;;12.48;62.06
6423;BME280;3244;42.708;23.288;2023-02-27T00:14:12;94161.72;;;12.63;62.16
6423;BME280;3244;42.708;23.288;2023-02-27T00:16:39;94149.75;;;12.49;62.44
6423;BME280;3244;42.708;23.288;2023-02-27T00:19:06;94162.34;;;12.52;62.07
6423;BME280;3244;42.708;23.288;2023-02-27T00:21:34;94147.63;;;12.57;62.36
6423;BME280;3244;42.708;23.288;2023-02-27T00:24:01;94154.84;;;12.49;62.53
6423;BME280;3244;42.708;23.288;2023-02-27T00:26:27;94173.03;;;12.43;63.10
6423;BME280;3244;42.708;23.288;2023-02-27T00:28:54;94144.19;;;12.26;62.93
6423;BME280;3244;42.708;23.288;2023-02-27T00:31:21;94161.91;;;12.44;63.18
6423;BME280;3244;42.708;23.288;2023-02-27T00:33:47;94154.88;;;12.33;62.37
6423;BME280;3244;42.708;23.288;2023-02-27T00:36:14;94155.09;;;12.44;61.43
6423;BME280;3244;42.708;23.288;2023-02-27T00:38:42;94162.09;;;12.56;59.98
6423;BME280;3244;42.708;23.288;2023-02-27T00:41:09;94167.00;;;12.89;60.08
6423;BME280;3244;42.708;23.288;2023-02-27T00:43:36;94175.59;;;13.03;59.18
6423;BME280;3244;42.708;23.288;2023-02-27T00:46:03;94167.31;;;12.99;60.09
6423;BME280;3244;42.708;23.288;2023-02-27T00:48:29;94173.88;;;13.03;60.15
6423;BME280;3244;42.708;23.288;2023-02-27T00:50:56;94167.81;;;12.90;61.11
6423;BME280;3244;42.708;23.288;2023-02-27T00:53:23;94163.50;;;12.76;61.13
6423;BME280;3244;42.708;23.288;2023-02-27T00:55:51;94159.38;;;12.59;61.41
6423;BME280;3244;42.708;23.288;2023-02-27T00:58:18;94158.47;;;12.45;61.79
6423;BME280;3244;42.708;23.288;2023-02-27T01:00:44;94181.66;;;12.56;61.27
6423;BME280;3244;42.708;23.288;2023-02-27T01:03:11;94158.34;;;12.62;62.34
6423;BME280;3244;42.708;23.288;2023-02-27T01:05:38;94177.34;;;12.72;61.92
6423;BME280;3244;42.708;23.288;2023-02-27T01:08:05;94172.41;;;12.69;61.76
6423;BME280;3244;42.708;23.288;2023-02-27T01:10:32;94155.13;;;12.74;61.80
6423;BME280;3244;42.708;23.288;2023-02-27T01:13:00;94163.50;;;12.76;61.93
6423;BME280;3244;42.708;23.288;2023-02-27T01:15:27;94171.97;;;12.77;62.14
6423;BME280;3244;42.708;23.288;2023-02-27T01:17:53;94169.13;;;12.67;61.66
6423;BME280;3244;42.708;23.288;2023-02-27T01:20:20;94166.47;;;12.69;62.27
6423;BME280;3244;42.708;23.288;2023-02-27T01:22:47;94162.03;;;12.72;61.89
6423;BME280;3244;42.708;23.288;2023-02-27T01:25:15;94162.84;;;12.73;61.88
6423;BME280;3244;42.708;23.288;2023-02-27T01:27:42;94157.84;;;12.71;62.73
6423;BME280;3244;42.708;23.288;2023-02-27T01:30:11;94181.28;;;12.62;63.01
6423;BME280;3244;42.708;23.288;2023-02-27T01:32:41;94164.47;;;12.59;63.55
6423;BME280;3244;42.708;23.288;2023-02-27T01:35:08;94195.13;;;12.58;63.57
6423;BME280;3244;42.708;23.288;2023-02-27T01:37:35;94192.13;;;12.81;62.30
6423;BME280;3244;42.708;23.288;2023-02-27T01:40:01;94174.09;;;12.84;62.63
6423;BME280;3244;42.708;23.288;2023-02-27T01:42:29;94200.69;;;12.80;62.39
6423;BME280;3244;42.708;23.288;2023-02-27T01:48:12;94216.97;;;12.62;63.11
6423;BME280;3244;42.708;23.288;2023-02-27T01:50:46;94226.47;;;12.60;64.01
6423;BME280;3244;42.708;23.288;2023-02-27T01:53:13;94222.31;;;12.73;63.65
6423;BME280;3244;42.708;23.288;2023-02-27T01:55:41;94218.16;;;12.56;63.85
6423;BME280;3244;42.708;23.288;2023-02-27T01:58:10;94216.34;;;12.58;63.63
6423;BME280;3244;42.708;23.288;2023-02-27T02:00:39;94221.44;;;12.58;63.39
6423;BME280;3244;42.708;23.288;2023-02-27T02:03:12;94228.19;;;12.59;64.61
6423;BME280;3244;42.708;23.288;2023-02-27T02:05:41;94229.50;;;12.51;64.98
6423;BME280;3244;42.708;23.288;2023-02-27T02:08:09;94250.63;;;12.53;65.16
6423;BME280;3244;42.708;23.288;2023-02-27T02:10:37;94278.16;;;12.62;66.24
6423;BME280;3244;42.708;23.288;2023-02-27T02:13:06;94275.44;;;12.81;66.50
6423;BME280;3244;42.708;23.288;2023-02-27T02:15:36;94306.75;;;12.99;67.54
6423;BME280;3244;42.708;23.288;2023-02-27T02:18:17;94322.97;;;12.98;70.55
6423;BME280;3244;42.708;23.288;2023-02-27T02:21:24;94372.72;;;12.89;72.20
6423;BME280;3244;42.708;23.288;2023-02-27T02:24:21;94439.31;;;12.67;75.98
6423;BME280;3244;42.708;23.288;2023-02-27T02:27:03;94434.16;;;12.18;79.01
6423;BME280;3244;42.708;23.288;2023-02-27T02:29:57;94425.09;;;11.96;80.44
6423;BME280;3244;42.708;23.288;2023-02-27T02:32:54;94420.41;;;11.52;80.32
6423;BME280;3244;42.708;23.288;2023-02-27T02:35:57;94422.41;;;11.45;80.46
6423;BME280;3244;42.708;23.288;2023-02-27T02:38:47;94399.50;;;11.28;81.67
6423;BME280;3244;42.708;23.288;2023-02-27T02:41:21;94414.63;;;11.31;82.11
6423;BME280;3244;42.708;23.288;2023-02-27T02:44:01;94426.16;;;11.38;82.72
6423;BME280;3244;42.708;23.288;2023-02-27T02:46:33;94448.41;;;11.52;82.20
6423;BME280;3244;42.708;23.288;2023-02-27T02:49:08;94470.19;;;11.57;82.38
6423;BME280;3244;42.708;23.288;2023-02-27T02:51:39;94466.91;;;11.55;82.05
6423;BME280;3244;42.708;23.288;2023-02-27T02:54:14;94473.91;;;11.50;79.83
6423;BME280;3244;42.708;23.288;2023-02-27T02:56:45;94477.59;;;11.26;75.39
6423;BME280;3244;42.708;23.288;2023-02-27T02:59:17;94483.16;;;10.97;73.75
6423;BME280;3244;42.708;23.288;2023-02-27T03:01:49;94491.50;;;10.61;73.92
6423;BME280;3244;42.708;23.288;2023-02-27T03:04:21;94504.84;;;10.26;75.73
6423;BME280;3244;42.708;23.288;2023-02-27T03:06:51;94477.84;;;9.81;75.76
6423;BME280;3244;42.708;23.288;2023-02-27T03:09:27;94514.03;;;9.86;76.08
6423;BME280;3244;42.708;23.288;2023-02-27T03:11:57;94521.94;;;9.57;77.47
6423;BME280;3244;42.708;23.288;2023-02-27T03:14:29;94532.53;;;9.44;77.14
6423;BME280;3244;42.708;23.288;2023-02-27T03:17:01;94531.69;;;9.22;77.87
6423;BME280;3244;42.708;23.288;2023-02-27T03:19:33;94520.56;;;9.26;79.02
6423;BME280;3244;42.708;23.288;2023-02-27T03:22:05;94518.81;;;9.50;77.66
6423;BME280;3244;42.708;23.288;2023-02-27T03:24:39;94527.13;;;9.53;77.78
6423;BME280;3244;42.708;23.288;2023-02-27T03:27:08;94526.47;;;9.48;77.47
6423;BME280;3244;42.708;23.288;2023-02-27T03:29:39;94527.78;;;9.37;77.88
6423;BME280;3244;42.708;23.288;2023-02-27T03:32:12;94542.94;;;9.38;78.25
6423;BME280;3244;42.708;23.288;2023-02-27T03:34:41;94548.00;;;9.38;77.21
6423;BME280;3244;42.708;23.288;2023-02-27T03:37:19;94554.94;;;9.33;77.97
6423;BME280;3244;42.708;23.288;2023-02-27T03:39:52;94567.97;;;9.24;78.60
6423;BME280;3244;42.708;23.288;2023-02-27T03:42:27;94576.53;;;9.20;77.90
6423;BME280;3244;42.708;23.288;2023-02-27T03:45:00;94575.72;;;9.19;78.42
6423;BME280;3244;42.708;23.288;2023-02-27T03:47:29;94574.41;;;9.09;78.72
6423;BME280;3244;42.708;23.288;2023-02-27T03:49:56;94577.09;;;9.05;78.38
6423;BME280;3244;42.708;23.288;2023-02-27T03:52:24;94583.03;;;8.80;79.16
6423;BME280;3244;42.708;23.288;2023-02-27T03:54:56;94580.34;;;8.85;79.21
6423;BME280;3244;42.708;23.288;2023-02-27T03:57:25;94582.94;;;8.83;79.64
6423;BME280;3244;42.708;23.288;2023-02-27T03:59:53;94602.47;;;8.80;79.15
6423;BME280;3244;42.708;23.288;2023-02-27T04:02:20;94624.41;;;8.81;79.16
6423;BME280;3244;42.708;23.288;2023-02-27T04:04:48;94630.09;;;8.88;78.49
6423;BME280;3244;42.708;23.288;2023-02-27T04:07:23;94638.91;;;9.01;76.74
6423;BME280;3244;42.708;23.288;2023-02-27T04:10:08;94629.41;;;8.82;77.43
6423;BME280;3244;42.708;23.288;2023-02-27T04:12:58;94635.25;;;8.84;78.65
6423;BME280;3244;42.708;23.288;2023-02-27T04:15:38;94650.97;;;8.94;78.37
6423;BME280;3244;42.708;23.288;2023-02-27T04:18:17;94654.38;;;8.93;78.87
6423;BME280;3244;42.708;23.288;2023-02-27T04:20:53;94658.84;;;8.86;78.79
6423;BME280;3244;42.708;23.288;2023-02-27T04:23:26;94648.50;;;8.66;78.87
6423;BME280;3244;42.708;23.288;2023-02-27T04:26:10;94666.44;;;8.86;78.27
6423;BME280;3244;42.708;23.288;2023-02-27T04:28:42;94676.41;;;8.91;78.06
6423;BME280;3244;42.708;23.288;2023-02-27T04:31:15;94673.72;;;8.96;77.74
6423;BME280;3244;42.708;23.288;2023-02-27T04:33:47;94673.16;;;8.88;78.26
6423;BME280;3244;42.708;23.288;2023-02-27T04:36:25;94686.91;;;9.05;77.11
6423;BME280;3244;42.708;23.288;2023-02-27T04:38:59;94683.34;;;9.11;76.72
6423;BME280;3244;42.708;23.288;2023-02-27T04:41:32;94693.69;;;9.05;76.88
6423;BME280;3244;42.708;23.288;2023-02-27T04:44:03;94698.75;;;9.05;75.83
6423;BME280;3244;42.708;23.288;2023-02-27T04:46:33;94711.16;;;8.88;77.48
6423;BME280;3244;42.708;23.288;2023-02-27T04:49:04;94720.25;;;8.93;76.71
6423;BME280;3244;42.708;23.288;2023-02-27T04:51:34;94717.47;;;9.01;75.10
6423;BME280;3244;42.708;23.288;2023-02-27T04:54:07;94724.22;;;9.02;76.67
6423;BME280;3244;42.708;23.288;2023-02-27T04:56:39;94728.25;;;9.07;75.81
6423;BME280;3244;42.708;23.288;2023-02-27T04:59:10;94726.88;;;8.97;75.93
6423;BME280;3244;42.708;23.288;2023-02-27T05:01:40;94733.38;;;9.06;76.22
6423;BME280;3244;42.708;23.288;2023-02-27T05:04:13;94736.69;;;9.08;74.76
6423;BME280;3244;42.708;23.288;2023-02-27T05:06:42;94737.66;;;9.04;74.55
6423;BME280;3244;42.708;23.288;2023-02-27T05:09:13;94746.59;;;8.89;75.42
6423;BME280;3244;42.708;23.288;2023-02-27T05:11:49;94744.91;;;8.90;74.92
6423;BME280;3244;42.708;23.288;2023-02-27T05:14:20;94758.53;;;8.85;75.72
6423;BME280;3244;42.708;23.288;2023-02-27T05:16:52;94760.75;;;8.95;75.56
6423;BME280;3244;42.708;23.288;2023-02-27T05:19:22;94753.16;;;8.95;74.78
6423;BME280;3244;42.708;23.288;2023-02-27T05:21:53;94749.97;;;8.90;75.43
6423;BME280;3244;42.708;23.288;2023-02-27T05:24:32;94761.84;;;8.88;75.64
6423;BME280;3244;42.708;23.288;2023-02-27T05:27:14;94759.06;;;8.95;76.68
6423;BME280;3244;42.708;23.288;2023-02-27T05:29:47;94769.94;;;8.99;74.77
6423;BME280;3244;42.708;23.288;2023-02-27T05:32:21;94777.47;;;9.00;75.05
6423;BME280;3244;42.708;23.288;2023-02-27T05:34:53;94783.03;;;8.85;75.65
6423;BME280;3244;42.708;23.288;2023-02-27T05:37:27;94782.13;;;8.88;74.32
6423;BME280;3244;42.708;23.288;2023-02-27T05:39:58;94786.09;;;8.95;74.99
6423;BME280;3244;42.708;23.288;2023-02-27T05:42:35;94783.38;;;9.01;73.86
6423;BME280;3244;42.708;23.288;2023-02-27T05:45:07;94789.22;;;9.03;73.71
6423;BME280;3244;42.708;23.288;2023-02-27T05:47:38;94799.69;;;8.92;74.75
6423;BME280;3244;42.708;23.288;2023-02-27T05:50:09;94810.47;;;8.99;73.84
6423;BME280;3244;42.708;23.288;2023-02-27T05:52:39;94800.88;;;9.08;73.65
6423;BME280;3244;42.708;23.288;2023-02-27T05:55:10;94791.94;;;9.23;72.08
6423;BME280;3244;42.708;23.288;2023-02-27T05:57:42;94790.78;;;9.33;71.51
6423;BME280;3244;42.708;23.288;2023-02-27T06:00:13;94796.34;;;9.18;72.54
6423;BME280;3244;42.708;23.288;2023-02-27T06:02:42;94796.69;;;9.34;72.20
6423;BME280;3244;42.708;23.288;2023-02-27T06:05:12;94810.78;;;9.41;71.73
6423;BME280;3244;42.708;23.288;2023-02-27T06:07:39;94818.84;;;9.53;71.55
6423;BME280;3244;42.708;23.288;2023-02-27T06:10:07;94831.69;;;9.74;70.96
6423;BME280;3244;42.708;23.288;2023-02-27T06:12:34;94831.72;;;9.97;68.91
6423;BME280;3244;42.708;23.288;2023-02-27T06:15:02;94833.94;;;10.06;67.39
6423;BME280;3244;42.708;23.288;2023-02-27T06:17:29;94838.19;;;10.06;67.60
6423;BME280;3244;42.708;23.288;2023-02-27T06:19:55;94846.28;;;10.15;67.26
6423;BME280;3244;42.708;23.288;2023-02-27T06:22:22;94823.56;;;10.37;66.67
6423;BME280;3244;42.708;23.288;2023-02-27T06:24:49;94828.78;;;10.56;66.15
6423;BME280;3244;42.708;23.288;2023-02-27T06:27:16;94831.50;;;10.95;65.16
6423;BME280;3244;42.708;23.288;2023-02-27T06:29:42;94836.97;;;11.70;62.43
6423;BME280;3244;42.708;23.288;2023-02-27T06:32:11;94841.56;;;12.79;60.49
6423;BME280;3244;42.708;23.288;2023-02-27T06:34:37;94841.44;;;13.54;57.17
6423;BME280;3244;42.708;23.288;2023-02-27T06:37:04;94839.50;;;13.77;54.85
6423;BME280;3244;42.708;23.288;2023-02-27T06:39:31;94847.44;;;13.71;54.61
6423;BME280;3244;42.708;23.288;2023-02-27T06:41:58;94857.34;;;13.42;55.16
6423;BME280;3244;42.708;23.288;2023-02-27T06:44:24;94855.75;;;13.04;55.71
6423;BME280;3244;42.708;23.288;2023-02-27T06:46:51;94862.63;;;12.64;57.04
6423;BME280;3244;42.708;23.288;2023-02-27T06:49:19;94863.91;;;12.55;57.55
6423;BME280;3244;42.708;23.288;2023-02-27T06:51:46;94876.72;;;12.54;57.34
6423;BME280;3244;42.708;23.288;2023-02-27T06:54:13;94881.25;;;13.04;56.33
6423;BME280;3244;42.708;23.288;2023-02-27T06:56:40;94875.53;;;13.88;54.50
6423;BME280;3244;42.708;23.288;2023-02-27T06:59:06;94869.22;;;14.78;52.51
6423;BME280;3244;42.708;23.288;2023-02-27T07:01:33;94861.47;;;15.27;50.49
6423;BME280;3244;42.708;23.288;2023-02-27T07:04:00;94875.16;;;15.26;50.17
6423;BME280;3244;42.708;23.288;2023-02-27T07:06:28;94868.31;;;14.95;49.04
6423;BME280;3244;42.708;23.288;2023-02-27T07:08:55;94875.88;;;14.32;50.72
6423;BME280;3244;42.708;23.288;2023-02-27T07:11:21;94876.84;;;14.29;51.59
6423;BME280;3244;42.708;23.288;2023-02-27T07:13:48;94872.03;;;14.74;50.63
6423;BME280;3244;42.708;23.288;2023-02-27T07:16:15;94878.25;;;15.78;48.45
6423;BME280;3244;42.708;23.288;2023-02-27T07:18:42;94854.97;;;16.96;45.35
6423;BME280;3244;42.708;23.288;2023-02-27T07:21:08;94874.41;;;17.68;44.39
6423;BME280;3244;42.708;23.288;2023-02-27T07:23:36;94881.41;;;17.66;43.58
6423;BME280;3244;42.708;23.288;2023-02-27T07:26:04;94878.97;;;17.78;43.84
6423;BME280;3244;42.708;23.288;2023-02-27T07:28:30;94872.84;;;18.18;42.94
6423;BME280;3244;42.708;23.288;2023-02-27T07:30:57;94873.63;;;19.08;41.24
6423;BME280;3244;42.708;23.288;2023-02-27T07:33:24;94865.53;;;21.32;37.74
6423;BME280;3244;42.708;23.288;2023-02-27T07:35:51;94869.94;;;23.28;33.10
6423;BME280;3244;42.708;23.288;2023-02-27T07:38:18;94872.66;;;23.77;31.41
6423;BME280;3244;42.708;23.288;2023-02-27T07:40:48;94871.19;;;23.34;32.74
6423;BME280;3244;42.708;23.288;2023-02-27T07:43:14;94889.81;;;22.57;34.10
6423;BME280;3244;42.708;23.288;2023-02-27T07:45:41;94887.97;;;22.38;34.29
6423;BME280;3244;42.708;23.288;2023-02-27T07:48:08;94886.66;;;22.95;33.42
6423;BME280;3244;42.708;23.288;2023-02-27T07:50:35;94871.03;;;24.14;31.27
6423;BME280;3244;42.708;23.288;2023-02-27T07:53:02;94884.97;;;24.89;30.18
6423;BME280;3244;42.708;23.288;2023-02-27T07:55:29;94876.16;;;24.62;30.39
6423;BME280;3244;42.708;23.288;2023-02-27T07:57:57;94872.53;;;23.68;32.12
6423;BME280;3244;42.708;23.288;2023-02-27T08:00:24;94875.69;;;23.22;32.46
6423;BME280;3244;42.708;23.288;2023-02-27T08:02:51;94872.91;;;22.74;33.05
6423;BME280;3244;42.708;23.288;2023-02-27T08:05:18;94880.84;;;21.24;34.66
6423;BME280;3244;42.708;23.288;2023-02-27T08:07:45;94885.97;;;19.28;38.38
6423;BME280;3244;42.708;23.288;2023-02-27T08:10:12;94901.19;;;17.79;42.03
6423;BME280;3244;42.708;23.288;2023-02-27T08:12:40;94900.09;;;16.86;44.15
6423;BME280;3244;42.708;23.288;2023-02-27T08:15:09;94893.88;;;16.04;46.29
6423;BME280;3244;42.708;23.288;2023-02-27T08:17:36;94895.72;;;15.86;47.00
6423;BME280;3244;42.708;23.288;2023-02-27T08:20:03;94909.25;;;15.74;47.64
6423;BME280;3244;42.708;23.288;2023-02-27T08:22:31;94914.50;;;15.86;47.76
6423;BME280;3244;42.708;23.288;2023-02-27T08:24:58;94912.09;;;16.86;45.74
6423;BME280;3244;42.708;23.288;2023-02-27T08:27:25;94913.34;;;17.89;43.48
6423;BME280;3244;42.708;23.288;2023-02-27T08:29:52;94904.78;;;17.89;43.56
6423;BME280;3244;42.708;23.288;2023-02-27T08:32:20;94897.84;;;19.54;40.98
6423;BME280;3244;42.708;23.288;2023-02-27T08:34:46;94898.91;;;21.78;36.44
6423;BME280;3244;42.708;23.288;2023-02-27T08:37:13;94901.00;;;23.49;33.72
6423;BME280;3244;42.708;23.288;2023-02-27T08:39:40;94885.78;;;24.42;30.75
6423;BME280;3244;42.708;23.288;2023-02-27T08:42:07;94894.34;;;24.53;31.05
6423;BME280;3244;42.708;23.288;2023-02-27T08:44:34;94888.63;;;25.33;29.99
6423;BME280;3244;42.708;23.288;2023-02-27T08:47:00;94891.31;;;26.04;28.94
6423;BME280;3244;42.708;23.288;2023-02-27T08:49:28;94891.63;;;26.36;28.45
6423;BME280;3244;42.708;23.288;2023-02-27T08:51:55;94891.56;;;26.72;28.31
6423;BME280;3244;42.708;23.288;2023-02-27T08:54:22;94891.13;;;26.59;28.07
6423;BME280;3244;42.708;23.288;2023-02-27T08:56:49;94892.78;;;26.24;28.23
6423;BME280;3244;42.708;23.288;2023-02-27T08:59:15;94900.88;;;25.23;29.56
6423;BME280;3244;42.708;23.288;2023-02-27T09:01:42;94903.28;;;24.31;31.60
6423;BME280;3244;42.708;23.288;2023-02-27T09:04:09;94909.53;;;23.70;32.22
6423;BME280;3244;42.708;23.288;2023-02-27T09:06:38;94908.22;;;23.05;32.88
6423;BME280;3244;42.708;23.288;2023-02-27T09:09:05;94921.69;;;22.48;33.48
6423;BME280;3244;42.708;23.288;2023-02-27T09:11:32;94928.84;;;22.03;34.68
6423;BME280;3244;42.708;23.288;2023-02-27T09:13:59;94926.16;;;21.50;35.86
6423;BME280;3244;42.708;23.288;2023-02-27T09:16:26;94924.50;;;20.82;36.46
6423;BME280;3244;42.708;23.288;2023-02-27T09:18:53;94934.06;;;20.12;38.73
6423;BME280;3244;42.708;23.288;2023-02-27T09:21:20;94936.53;;;19.78;39.37
6423;BME280;3244;42.708;23.288;2023-02-27T09:23:48;94930.59;;;19.65;40.38
6423;BME280;3244;42.708;23.288;2023-02-27T09:26:15;94936.72;;;19.51;40.78
6423;BME280;3244;42.708;23.288;2023-02-27T09:28:42;94951.44;;;19.49;40.53
6423;BME280;3244;42.708;23.288;2023-02-27T09:31:09;94941.22;;;19.60;40.87
6423;BME280;3244;42.708;23.288;2023-02-27T09:33:37;94938.59;;;19.73;40.72
6423;BME280;3244;42.708;23.288;2023-02-27T09:36:04;94954.44;;;19.43;40.58
6423;BME280;3244;42.708;23.288;2023-02-27T09:38:31;94947.41;;;18.96;41.71
6423;BME280;3244;42.708;23.288;2023-02-27T09:41:00;94953.44;;;18.57;42.43
6423;BME280;3244;42.708;23.288;2023-02-27T09:43:33;94947.31;;;18.07;43.83
6423;BME280;3244;42.708;23.288;2023-02-27T09:46:03;94949.66;;;17.71;45.36
6423;BME280;3244;42.708;23.288;2023-02-27T09:48:37;94955.78;;;17.41;45.66
6423;BME280;3244;42.708;23.288;2023-02-27T09:51:05;94943.69;;;17.15;46.39
6423;BME280;3244;42.708;23.288;2023-02-27T09:53:35;94957.97;;;17.33;46.43
6423;BME280;3244;42.708;23.288;2023-02-27T09:56:07;94966.84;;;17.56;45.71
6423;BME280;3244;42.708;23.288;2023-02-27T09:58:43;94958.53;;;17.38;45.44
6423;BME280;3244;42.708;23.288;2023-02-27T10:01:15;94970.13;;;17.03;46.56
6423;BME280;3244;42.708;23.288;2023-02-27T10:04:09;94975.81;;;16.79;47.06
6423;BME280;3244;42.708;23.288;2023-02-27T10:06:42;94986.97;;;16.64;47.50
6423;BME280;3244;42.708;23.288;2023-02-27T10:09:26;94981.31;;;16.87;47.75
6423;BME280;3244;42.708;23.288;2023-02-27T10:12:16;94979.84;;;17.26;46.40
6423;BME280;3244;42.708;23.288;2023-02-27T10:14:49;94981.09;;;17.33;46.33
6423;BME280;3244;42.708;23.288;2023-02-27T10:17:21;94982.03;;;17.32;46.08
6423;BME280;3244;42.708;23.288;2023-02-27T10:19:51;94983.50;;;16.93;46.85
6423;BME280;3244;42.708;23.288;2023-02-27T10:22:22;94984.97;;;16.97;47.24
6423;BME280;3244;42.708;23.288;2023-02-27T10:24:55;94989.91;;;17.15;47.46
6423;BME280;3244;42.708;23.288;2023-02-27T10:27:24;94977.22;;;17.54;46.58
6423;BME280;3244;42.708;23.288;2023-02-27T10:29:53;94985.09;;;17.80;46.32
6423;BME280;3244;42.708;23.288;2023-02-27T10:32:26;94978.44;;;17.34;46.28
6423;BME280;3244;42.708;23.288;2023-02-27T10:35:06;94979.81;;;16.83;47.56
6423;BME280;3244;42.708;23.288;2023-02-27T10:37:34;94980.09;;;16.64;48.88
6423;BME280;3244;42.708;23.288;2023-02-27T10:40:03;94968.47;;;16.73;48.79
6423;BME280;3244;42.708;23.288;2023-02-27T10:42:35;94969.50;;;16.41;48.83
6423;BME280;3244;42.708;23.288;2023-02-27T10:45:04;94974.00;;;16.07;50.30
6423;BME280;3244;42.708;23.288;2023-02-27T10:47:31;94982.22;;;15.67;51.03
6423;BME280;3244;42.708;23.288;2023-02-27T10:49:58;94977.81;;;15.21;52.07
6423;BME280;3244;42.708;23.288;2023-02-27T10:52:25;94974.72;;;14.83;53.92
6423;BME280;3244;42.708;23.288;2023-02-27T10:54:51;94981.09;;;14.75;54.34
6423;BME280;3244;42.708;23.288;2023-02-27T10:57:24;94973.59;;;15.05;54.00
6423;BME280;3244;42.708;23.288;2023-02-27T10:59:54;94977.91;;;15.51;53.15
6423;BME280;3244;42.708;23.288;2023-02-27T11:02:24;94964.13;;;15.70;51.98
6423;BME280;3244;42.708;23.288;2023-02-27T11:04:54;94974.94;;;15.43;52.39
6423;BME280;3244;42.708;23.288;2023-02-27T11:07:31;94988.13;;;15.04;53.46
6423;BME280;3244;42.708;23.288;2023-02-27T11:10:01;94972.69;;;14.38;54.90
6423;BME280;3244;42.708;23.288;2023-02-27T11:12:30;94966.03;;;14.53;55.21
6423;BME280;3244;42.708;23.288;2023-02-27T11:15:00;94961.00;;;14.84;54.94
6423;BME280;3244;42.708;23.288;2023-02-27T11:17:29;94958.22;;;15.36;53.75
6423;BME280;3244;42.708;23.288;2023-02-27T11:19:58;94960.25;;;15.31;53.13
6423;BME280;3244;42.708;23.288;2023-02-27T11:22:27;94953.13;;;14.72;54.55
6423;BME280;3244;42.708;23.288;2023-02-27T11:25:18;94950.94;;;14.64;55.18
6423;BME280;3244;42.708;23.288;2023-02-27T11:27:47;94953.75;;;14.92;54.48
6423;BME280;3244;42.708;23.288;2023-02-27T11:30:29;94952.09;;;14.91;54.70
6423;BME280;3244;42.708;23.288;2023-02-27T11:32:57;94938.75;;;14.69;55.16
6423;BME280;3244;42.708;23.288;2023-02-27T11:35:28;94943.63;;;14.58;56.06
6423;BME280;3244;42.708;23.288;2023-02-27T11:37:58;94952.34;;;14.54;55.68
6423;BME280;3244;42.708;23.288;2023-02-27T11:40:27;94938.88;;;14.50;56.54
6423;BME280;3244;42.708;23.288;2023-02-27T11:42:59;94937.47;;;14.45;58.33
6423;BME280;3244;42.708;23.288;2023-02-27T11:45:30;94944.44;;;14.41;59.26
6423;BME280;3244;42.708;23.288;2023-02-27T11:48:00;94945.22;;;14.09;58.96
6423;BME280;3244;42.708;23.288;2023-02-27T11:50:45;94952.03;;;13.91;59.54
6423;BME280;3244;42.708;23.288;2023-02-27T11:56:32;94937.59;;;14.24;59.83
6423;BME280;3244;42.708;23.288;2023-02-27T11:59:03;94945.41;;;14.56;60.52
6423;BME280;3244;42.708;23.288;2023-02-27T12:01:38;94942.44;;;14.81;58.25
6423;BME280;3244;42.708;23.288;2023-02-27T12:04:13;94932.97;;;14.98;56.97
6423;BME280;3244;42.708;23.288;2023-02-27T12:06:47;94930.56;;;15.11;56.54
6423;BME280;3244;42.708;23.288;2023-02-27T12:09:30;94936.28;;;15.32;56.73
6423;BME280;3244;42.708;23.288;2023-02-27T12:12:00;94930.00;;;15.69;56.12
6423;BME280;3244;42.708;23.288;2023-02-27T12:14:32;94922.50;;;15.96;56.22
6423;BME280;3244;42.708;23.288;2023-02-27T12:17:08;94917.69;;;16.06;55.68
6423;BME280;3244;42.708;23.288;2023-02-27T12:19:44;94924.56;;;16.05;55.25
6423;BME280;3244;42.708;23.288;2023-02-27T12:22:19;94920.25;;;16.06;54.68
6423;BME280;3244;42.708;23.288;2023-02-27T12:24:50;94924.56;;;16.19;55.14
6423;BME280;3244;42.708;23.288;2023-02-27T12:27:21;94918.28;;;16.25;54.86
6423;BME280;3244;42.708;23.288;2023-02-27T12:29:52;94914.31;;;16.19;54.06
6423;BME280;3244;42.708;23.288;2023-02-27T12:32:25;94925.66;;;16.15;54.81
6423;BME280;3244;42.708;23.288;2023-02-27T12:34:57;94915.03;;;16.07;54.67
6423;BME280;3244;42.708;23.288;2023-02-27T12:37:27;94919.13;;;15.95;54.97
6423;BME280;3244;42.708;23.288;2023-02-27T12:39:57;94913.72;;;16.00;55.71
6423;BME280;3244;42.708;23.288;2023-02-27T12:42:47;94920.41;;;15.73;55.26
6423;BME280;3244;42.708;23.288;2023-02-27T12:45:39;94917.75;;;15.43;56.21
6423;BME280;3244;42.708;23.288;2023-02-27T12:48:20;94918.63;;;15.27;57.10
6423;BME280;3244;42.708;23.288;2023-02-27T12:50:54;94912.16;;;15.20;57.43
6423;BME280;3244;42.708;23.288;2023-02-27T12:53:33;94915.22;;;15.27;58.06
6423;BME280;3244;42.708;23.288;2023-02-27T12:56:08;94922.38;;;15.36;58.31
6423;BME280;3244;42.708;23.288;2023-02-27T12:58:45;94927.28;;;15.25;57.33
6423;BME280;3244;42.708;23.288;2023-02-27T13:01:23;94929.34;;;15.03;58.49
6423;BME280;3244;42.708;23.288;2023-02-27T13:03:57;94925.72;;;15.07;60.14
6423;BME280;3244;42.708;23.288;2023-02-27T13:06:28;94938.22;;;14.95;59.40
6423;BME280;3244;42.708;23.288;2023-02-27T13:09:18;94936.06;;;14.88;60.14
6423;BME280;3244;42.708;23.288;2023-02-27T13:11:54;94924.16;;;14.71;60.38
6423;BME280;3244;42.708;23.288;2023-02-27T13:14:30;94934.47;;;14.70;60.56
6423;BME280;3244;42.708;23.288;2023-02-27T13:17:03;94931.91;;;14.70;59.40
6423;BME280;3244;42.708;23.288;2023-02-27T13:19:42;94941.78;;;14.60;60.43
6423;BME280;3244;42.708;23.288;2023-02-27T13:22:13;94950.13;;;14.63;60.54
6423;BME280;3244;42.708;23.288;2023-02-27T13:24:45;94946.44;;;14.69;59.68
6423;BME280;3244;42.708;23.288;2023-02-27T13:27:18;94945.09;;;14.62;58.17
6423;BME280;3244;42.708;23.288;2023-02-27T13:29:53;94947.03;;;14.40;58.40
6423;BME280;3244;42.708;23.288;2023-02-27T13:32:29;94940.75;;;14.12;59.46
6423;BME280;3244;42.708;23.288;2023-02-27T13:35:06;94938.44;;;14.08;59.62
6423;BME280;3244;42.708;23.288;2023-02-27T13:37:48;94912.44;;;13.82;61.14
6423;BME280;3244;42.708;23.288;2023-02-27T13:40:29;94913.31;;;13.64;61.26